Time;durP1;ratioP1;P1;durP2;ratioP2;P2;SDS_P1;SDS_P2;PMS_P1;PMS_P2;Temp;Humidity;BMP_temperature;BMP_pressure;BME280_temperature;BME280_humidity;BME280_pressure;Samples;Min_cycle;Max_cycle;Signal;HPM_P1;HPM_P2
2023/08/09 00:02:09;;;;;;;7.20;5.32;;;16.60;99.90;;;;;;5134575;27;20198;-85
2023/08/09 00:04:40;;;;;;;8.35;5.03;;;16.70;99.90;;;;;;5144607;27;20597;-85
2023/08/09 00:07:11;;;;;;;7.50;5.05;;;16.70;99.90;;;;;;5149978;27;20735;-84
2023/08/09 00:09:41;;;;;;;7.97;4.53;;;16.80;99.90;;;;;;5135371;27;20202;-85
2023/08/09 00:12:14;;;;;;;8.23;4.03;;;16.80;99.90;;;;;;5135247;27;20190;-86
2023/08/09 00:14:45;;;;;;;8.02;3.75;;;16.80;99.90;;;;;;5142487;27;20206;-85
2023/08/09 00:17:15;;;;;;;7.55;3.20;;;16.90;99.90;;;;;;5136589;27;20213;-85
2023/08/09 00:19:46;;;;;;;9.43;3.55;;;17.00;99.90;;;;;;5134335;27;20563;-85
2023/08/09 00:22:17;;;;;;;5.65;3.35;;;17.10;99.90;;;;;;5134890;27;20657;-84
2023/08/09 00:24:48;;;;;;;5.88;3.50;;;17.00;99.90;;;;;;5134878;27;20661;-86
2023/08/09 00:27:21;;;;;;;8.57;4.38;;;17.20;99.90;;;;;;5135421;27;20688;-85
2023/08/09 00:29:51;;;;;;;6.88;3.80;;;17.20;99.90;;;;;;5156287;27;20193;-85
2023/08/09 00:32:22;;;;;;;8.25;4.28;;;17.30;99.90;;;;;;5146368;27;20197;-85
2023/08/09 00:34:53;;;;;;;10.68;4.03;;;17.40;99.90;;;;;;5135720;27;20201;-85
2023/08/09 00:37:24;;;;;;;5.63;3.28;;;17.40;99.90;;;;;;5141608;27;20190;-85
2023/08/09 00:39:55;;;;;;;9.43;3.83;;;17.40;99.90;;;;;;5156516;27;20193;-85
2023/08/09 00:42:28;;;;;;;6.85;3.42;;;17.60;99.90;;;;;;5149092;27;20229;-86
2023/08/09 00:44:59;;;;;;;7.68;3.33;;;17.70;99.90;;;;;;5145887;27;20684;-84
2023/08/09 00:47:32;;;;;;;5.68;3.47;;;17.80;99.90;;;;;;5135773;27;20222;-84
2023/08/09 00:50:03;;;;;;;5.07;3.10;;;17.90;99.90;;;;;;5137864;27;20190;-84
2023/08/09 00:52:34;;;;;;;8.70;3.20;;;18.00;99.90;;;;;;5138087;27;20189;-84
2023/08/09 00:55:06;;;;;;;5.78;3.20;;;18.10;99.90;;;;;;5134093;27;20201;-83
2023/08/09 00:57:39;;;;;;;4.88;3.20;;;18.10;99.90;;;;;;5133409;27;20194;-84
2023/08/09 01:00:11;;;;;;;7.40;3.95;;;18.20;99.90;;;;;;5134848;27;20237;-84
2023/08/09 01:02:42;;;;;;;4.78;2.90;;;18.20;99.90;;;;;;5134502;27;20752;-83
2023/08/09 01:05:13;;;;;;;6.65;3.22;;;18.40;99.90;;;;;;5137806;27;20202;-84
2023/08/09 01:07:52;;;;;;;3.05;2.17;;;18.40;99.90;;;;;;5135097;27;20201;-84
2023/08/09 01:10:30;;;;;;;3.75;2.53;;;18.40;99.90;;;;;;5144420;27;20190;-84
2023/08/09 01:13:06;;;;;;;6.05;2.60;;;18.50;99.90;;;;;;5134306;27;20285;-84
2023/08/09 01:15:39;;;;;;;4.82;2.60;;;18.60;99.90;;;;;;5133412;27;20189;-85
2023/08/09 01:18:11;;;;;;;6.50;2.30;;;18.70;99.90;;;;;;5133299;27;20291;-85
2023/08/09 01:20:42;;;;;;;3.60;1.90;;;18.90;99.90;;;;;;5134414;27;20632;-83
2023/08/09 01:23:19;;;;;;;3.97;1.80;;;19.00;99.90;;;;;;5133588;27;20190;-84
2023/08/09 01:25:53;;;;;;;3.78;1.83;;;18.90;99.90;;;;;;5133678;27;20256;-85
2023/08/09 01:28:24;;;;;;;5.47;1.63;;;18.90;99.90;;;;;;5132469;27;20648;-84
2023/08/09 01:30:54;;;;;;;3.78;1.30;;;19.00;99.90;;;;;;5133491;27;20217;-83
2023/08/09 01:33:26;;;;;;;3.25;1.50;;;18.80;99.90;;;;;;5134458;27;20553;-84
2023/08/09 01:36:02;;;;;;;3.13;1.25;;;18.70;99.90;;;;;;5133327;27;20683;-85
2023/08/09 01:38:38;;;;;;;4.10;1.30;;;18.70;99.90;;;;;;5140218;27;20201;-84
2023/08/09 01:41:11;;;;;;;2.65;1.30;;;18.70;99.90;;;;;;5137931;27;20194;-86
2023/08/09 01:43:42;;;;;;;1.35;1.15;;;18.70;99.90;;;;;;5147220;27;20238;-85
2023/08/09 01:46:13;;;;;;;3.30;1.50;;;18.80;99.90;;;;;;5132208;27;20244;-85
2023/08/09 01:48:44;;;;;;;3.40;1.38;;;19.00;99.90;;;;;;5134272;27;20197;-85
2023/08/09 01:51:15;;;;;;;4.10;1.48;;;19.10;99.90;;;;;;5133222;27;20190;-84
2023/08/09 01:53:46;;;;;;;2.17;1.63;;;19.20;99.90;;;;;;5133012;27;20695;-84
2023/08/09 01:56:19;;;;;;;2.05;1.20;;;19.40;99.90;;;;;;5139895;27;20197;-85
2023/08/09 01:58:50;;;;;;;2.70;1.42;;;19.30;99.90;;;;;;5149128;27;20200;-85
2023/08/09 02:01:21;;;;;;;2.08;1.20;;;19.30;99.90;;;;;;5133406;27;20198;-85
2023/08/09 02:03:52;;;;;;;3.72;1.20;;;19.20;99.90;;;;;;5133522;27;20572;-84
2023/08/09 02:06:22;;;;;;;2.13;1.20;;;19.20;99.90;;;;;;5135692;27;20224;-84
2023/08/09 02:08:53;;;;;;;1.63;1.35;;;19.20;99.90;;;;;;5141165;27;20200;-85
2023/08/09 02:11:26;;;;;;;2.50;1.10;;;19.20;99.90;;;;;;5133594;27;20189;-84
2023/08/09 02:13:57;;;;;;;3.35;1.50;;;19.30;99.90;;;;;;5136182;27;20186;-84
2023/08/09 02:16:27;;;;;;;3.67;1.20;;;19.50;99.90;;;;;;5141668;27;20186;-85
2023/08/09 02:18:58;;;;;;;2.13;1.20;;;19.70;99.90;;;;;;5138340;27;20696;-84
2023/08/09 02:21:29;;;;;;;1.95;1.23;;;19.90;99.90;;;;;;5137692;27;20562;-85
2023/08/09 02:24:00;;;;;;;4.13;1.25;;;20.10;99.90;;;;;;5135774;27;20190;-85
2023/08/09 02:26:33;;;;;;;1.55;0.90;;;20.30;99.90;;;;;;5132766;27;20222;-84
2023/08/09 02:29:04;;;;;;;2.17;1.08;;;20.30;99.90;;;;;;5132666;27;20202;-84
2023/08/09 02:31:34;;;;;;;2.90;1.10;;;20.20;99.90;;;;;;5137134;27;20190;-84
2023/08/09 02:34:05;;;;;;;2.03;1.10;;;20.00;99.90;;;;;;5131950;27;20202;-84
2023/08/09 02:36:36;;;;;;;3.83;1.45;;;19.90;99.90;;;;;;5131957;27;20675;-84
2023/08/09 02:39:07;;;;;;;2.45;1.10;;;20.00;99.90;;;;;;5153357;27;20200;-84
2023/08/09 02:41:42;;;;;;;1.52;1.10;;;20.10;99.90;;;;;;5153261;27;20231;-84
2023/08/09 02:44:13;;;;;;;2.80;1.20;;;20.30;99.90;;;;;;5132497;27;20211;-85
2023/08/09 02:46:43;;;;;;;1.50;1.08;;;20.50;99.90;;;;;;5132282;27;20222;-83
2023/08/09 02:49:14;;;;;;;1.88;0.90;;;20.50;99.90;;;;;;5133055;27;20222;-84
2023/08/09 02:51:45;;;;;;;3.25;1.23;;;20.60;99.90;;;;;;5131537;27;20190;-83
2023/08/09 02:54:16;;;;;;;3.05;1.10;;;20.70;99.90;;;;;;5143440;27;20194;-86
2023/08/09 02:56:48;;;;;;;2.65;1.20;;;20.80;99.90;;;;;;5135440;27;20190;-84
2023/08/09 02:59:19;;;;;;;1.58;0.90;;;20.80;99.90;;;;;;5151698;27;20189;-85
2023/08/09 03:01:50;;;;;;;2.33;1.40;;;20.70;99.90;;;;;;5145913;27;20694;-83
2023/08/09 03:04:21;;;;;;;1.85;1.17;;;20.80;99.90;;;;;;5132154;27;20313;-84
2023/08/09 03:06:52;;;;;;;2.00;1.27;;;20.80;99.90;;;;;;5135719;27;20260;-84
2023/08/09 03:09:23;;;;;;;2.38;1.20;;;20.80;99.90;;;;;;5132437;27;20217;-84
2023/08/09 03:11:55;;;;;;;2.13;1.20;;;20.70;99.90;;;;;;5131842;27;20193;-85
2023/08/09 03:14:26;;;;;;;1.65;1.10;;;20.70;99.90;;;;;;5130985;27;20208;-86
2023/08/09 03:16:57;;;;;;;2.35;1.27;;;20.80;99.90;;;;;;5130853;27;20201;-82
2023/08/09 03:19:28;;;;;;;1.73;1.10;;;20.90;99.90;;;;;;5131471;27;20692;-84
2023/08/09 03:21:59;;;;;;;1.25;0.90;;;21.10;99.90;;;;;;5132286;27;20186;-82
2023/08/09 03:24:30;;;;;;;2.03;1.20;;;21.10;99.90;;;;;;5137155;27;20212;-83
2023/08/09 03:27:03;;;;;;;1.42;1.10;;;21.20;99.90;;;;;;5152637;27;20221;-85
2023/08/09 03:29:34;;;;;;;4.55;1.15;;;21.30;99.90;;;;;;5149886;27;20269;-86
2023/08/09 03:32:05;;;;;;;2.28;1.17;;;21.30;99.90;;;;;;5132738;27;20198;-86
2023/08/09 03:34:36;;;;;;;2.13;1.10;;;21.20;99.90;;;;;;5143608;27;20201;-85
2023/08/09 03:37:07;;;;;;;2.75;1.13;;;21.10;99.90;;;;;;5132555;27;20198;-83
2023/08/09 03:39:37;;;;;;;1.20;0.90;;;21.10;99.90;;;;;;5131490;27;20660;-84
2023/08/09 03:42:10;;;;;;;2.03;0.90;;;21.10;99.90;;;;;;5132868;27;20189;-83
2023/08/09 03:44:41;;;;;;;1.20;1.00;;;21.10;99.90;;;;;;5140133;27;20671;-83
2023/08/09 03:47:12;;;;;;;1.25;1.00;;;21.00;99.90;;;;;;5152160;27;20216;-81
2023/08/09 03:49:42;;;;;;;1.42;0.90;;;21.00;99.90;;;;;;5132371;27;20226;-84
2023/08/09 03:52:13;;;;;;;1.85;1.33;;;20.90;99.90;;;;;;5137903;27;20197;-85
2023/08/09 03:54:44;;;;;;;1.15;0.98;;;20.70;99.90;;;;;;5131523;27;20193;-83
2023/08/09 03:57:19;;;;;;;1.73;0.90;;;20.70;99.90;;;;;;5131805;27;20194;-84
2023/08/09 03:59:49;;;;;;;1.80;1.00;;;20.70;99.90;;;;;;5130829;27;20221;-85
2023/08/09 04:02:20;;;;;;;1.75;1.00;;;20.60;99.90;;;;;;5130213;28;20182;-85
2023/08/09 04:04:51;;;;;;;1.55;0.95;;;20.70;99.90;;;;;;5133704;27;20225;-85
2023/08/09 04:07:21;;;;;;;2.00;0.90;;;20.60;99.90;;;;;;5131061;27;20610;-84
2023/08/09 04:09:52;;;;;;;1.27;0.90;;;20.60;99.90;;;;;;5131668;27;20748;-85
2023/08/09 04:12:25;;;;;;;1.52;0.80;;;20.60;99.90;;;;;;5131706;28;20189;-84
2023/08/09 04:14:56;;;;;;;1.70;0.82;;;20.60;98.80;;;;;;5134222;27;20198;-85
2023/08/09 04:17:27;;;;;;;1.25;0.90;;;20.60;97.10;;;;;;5146783;27;20238;-84
2023/08/09 04:19:58;;;;;;;1.20;0.80;;;20.60;95.10;;;;;;5135364;27;20204;-86
2023/08/09 04:22:29;;;;;;;1.08;0.82;;;20.50;95.20;;;;;;5131017;27;20230;-84
2023/08/09 04:24:59;;;;;;;2.75;0.93;;;20.50;94.80;;;;;;5131470;28;20258;-85
2023/08/09 04:27:33;;;;;;;1.13;0.80;;;20.50;94.00;;;;;;5130663;27;20304;-85
2023/08/09 04:30:04;;;;;;;0.82;0.70;;;20.60;94.50;;;;;;5131784;27;20193;-85
2023/08/09 04:32:34;;;;;;;1.90;1.20;;;20.50;94.60;;;;;;5146067;27;20272;-86
2023/08/09 04:35:05;;;;;;;1.25;0.85;;;20.50;95.30;;;;;;5157438;27;20189;-84
2023/08/09 04:37:36;;;;;;;2.97;1.20;;;20.50;95.40;;;;;;5136004;27;20265;-84
2023/08/09 04:40:10;;;;;;;1.27;1.00;;;20.60;96.70;;;;;;5138481;27;20625;-85
2023/08/09 04:42:45;;;;;;;1.35;0.93;;;20.60;96.50;;;;;;5155387;27;20659;-85
2023/08/09 04:45:16;;;;;;;1.25;0.85;;;20.50;96.30;;;;;;5154027;27;20204;-84
2023/08/09 04:47:47;;;;;;;1.30;0.90;;;20.60;95.00;;;;;;5158033;27;20582;-85
2023/08/09 04:50:19;;;;;;;1.00;0.90;;;20.50;95.60;;;;;;5157126;27;20261;-84
2023/08/09 04:52:50;;;;;;;1.45;0.80;;;20.40;95.70;;;;;;5156826;27;20605;-84
2023/08/09 04:55:23;;;;;;;2.17;0.80;;;20.50;96.40;;;;;;5148054;27;20194;-84
2023/08/09 04:57:55;;;;;;;1.15;0.90;;;20.50;96.70;;;;;;5134431;27;20555;-84
2023/08/09 05:00:26;;;;;;;1.73;0.90;;;20.50;97.70;;;;;;5135061;27;20197;-84
2023/08/09 05:02:57;;;;;;;1.25;0.93;;;20.50;97.90;;;;;;5135023;27;20682;-85
2023/08/09 05:05:28;;;;;;;1.45;1.08;;;20.40;98.40;;;;;;5134093;27;20672;-83
2023/08/09 05:07:59;;;;;;;0.80;0.80;;;20.50;98.40;;;;;;5154467;27;20225;-83
2023/08/09 05:10:30;;;;;;;1.45;0.93;;;20.50;98.30;;;;;;5134981;27;20193;-83
2023/08/09 05:13:03;;;;;;;1.73;0.93;;;20.50;98.40;;;;;;5137219;27;20189;-84
2023/08/09 05:15:33;;;;;;;2.47;1.10;;;20.50;98.80;;;;;;5137624;27;20198;-83
2023/08/09 05:18:04;;;;;;;1.60;1.00;;;20.50;99.90;;;;;;5155355;27;20231;-83
2023/08/09 05:20:35;;;;;;;1.40;0.98;;;20.50;99.90;;;;;;5148902;27;20197;-83
2023/08/09 05:23:06;;;;;;;2.13;1.10;;;20.40;99.90;;;;;;5141898;27;20191;-83
2023/08/09 05:25:37;;;;;;;2.13;1.10;;;20.40;99.90;;;;;;5146345;27;20190;-83
2023/08/09 05:28:10;;;;;;;2.22;1.10;;;20.40;99.90;;;;;;5151412;27;20219;-83
2023/08/09 05:30:40;;;;;;;3.17;1.20;;;20.40;99.90;;;;;;5154770;27;20205;-83
2023/08/09 05:33:11;;;;;;;3.10;0.95;;;20.40;99.90;;;;;;5142567;27;20200;-83
2023/08/09 05:35:42;;;;;;;2.33;1.15;;;20.40;99.90;;;;;;5133594;27;20200;-83
2023/08/09 05:38:12;;;;;;;2.13;1.10;;;20.30;99.90;;;;;;5150613;27;20200;-84
2023/08/09 05:40:44;;;;;;;2.75;1.00;;;20.20;99.90;;;;;;5153777;27;20201;-83
2023/08/09 05:43:17;;;;;;;1.83;1.25;;;20.10;99.90;;;;;;5154818;27;20200;-84
2023/08/09 05:45:47;;;;;;;2.05;1.10;;;20.10;99.90;;;;;;5154861;27;20216;-84
2023/08/09 05:48:18;;;;;;;3.30;0.95;;;20.10;99.90;;;;;;5151030;27;20556;-84
2023/08/09 05:50:49;;;;;;;1.83;1.08;;;20.20;99.90;;;;;;5134550;27;20201;-84
2023/08/09 05:53:20;;;;;;;3.97;1.13;;;20.20;99.90;;;;;;5142560;27;20198;-84
2023/08/09 05:55:51;;;;;;;2.63;1.00;;;20.30;99.90;;;;;;5161436;27;20214;-84
2023/08/09 05:58:25;;;;;;;1.88;1.05;;;20.30;99.90;;;;;;5164800;27;20209;-81
2023/08/09 06:00:57;;;;;;;3.03;1.17;;;20.20;99.90;;;;;;5169573;27;20178;-83
2023/08/09 06:03:28;;;;;;;3.22;1.20;;;20.30;99.90;;;;;;5174354;27;20193;-83
2023/08/09 06:06:00;;;;;;;6.53;1.45;;;20.20;99.90;;;;;;5154927;27;20569;-84
2023/08/09 06:08:31;;;;;;;3.35;1.15;;;20.20;99.90;;;;;;5139867;27;20226;-85
2023/08/09 06:11:02;;;;;;;2.80;0.82;;;20.30;99.90;;;;;;5134897;27;20558;-84
2023/08/09 06:13:35;;;;;;;2.45;1.17;;;20.30;99.90;;;;;;5134708;27;20740;-86
2023/08/09 06:16:06;;;;;;;1.15;0.95;;;20.40;99.90;;;;;;5136027;27;20278;-84
2023/08/09 06:18:39;;;;;;;1.88;1.13;;;20.50;99.90;;;;;;5140928;27;20229;-84
2023/08/09 06:21:10;;;;;;;3.95;1.30;;;20.50;99.90;;;;;;5146126;27;20193;-83
2023/08/09 06:23:41;;;;;;;2.20;1.08;;;20.40;99.90;;;;;;5143083;27;20189;-85
2023/08/09 06:26:12;;;;;;;2.17;1.00;;;20.50;99.90;;;;;;5136596;27;20260;-84
2023/08/09 06:28:45;;;;;;;3.55;1.13;;;20.50;99.90;;;;;;5147041;27;20261;-85
2023/08/09 06:31:16;;;;;;;2.83;1.10;;;20.50;99.90;;;;;;5141732;27;20226;-85
2023/08/09 06:33:47;;;;;;;6.00;1.35;;;20.50;99.90;;;;;;5150205;27;20206;-85
2023/08/09 06:36:18;;;;;;;3.13;1.70;;;20.50;99.90;;;;;;5134707;27;20194;-85
2023/08/09 06:38:49;;;;;;;2.17;1.13;;;20.30;99.90;;;;;;5135050;27;20664;-83
2023/08/09 06:41:20;;;;;;;3.50;1.25;;;20.20;99.90;;;;;;5135381;27;20206;-85
2023/08/09 06:43:53;;;;;;;3.85;1.10;;;20.00;99.90;;;;;;5134131;27;20387;-86
2023/08/09 06:46:24;;;;;;;3.42;1.20;;;19.90;99.90;;;;;;5134663;27;20273;-85
2023/08/09 06:48:56;;;;;;;4.93;1.00;;;19.60;99.90;;;;;;5136433;27;20636;-85
2023/08/09 06:51:27;;;;;;;5.55;1.15;;;19.60;99.90;;;;;;5134613;27;20274;-86
2023/08/09 06:53:58;;;;;;;3.03;1.25;;;19.60;99.90;;;;;;5141856;27;20193;-84
2023/08/09 06:56:28;;;;;;;3.35;1.40;;;19.50;99.90;;;;;;5151992;27;20208;-85
2023/08/09 06:59:01;;;;;;;4.43;1.52;;;19.40;99.90;;;;;;5142061;27;20204;-85
2023/08/09 07:01:32;;;;;;;2.35;1.25;;;19.30;99.90;;;;;;5155129;27;20222;-85
2023/08/09 07:04:03;;;;;;;2.65;1.20;;;19.30;99.90;;;;;;5153878;27;20193;-84
2023/08/09 07:06:34;;;;;;;4.40;1.27;;;19.20;99.90;;;;;;5136605;27;20686;-83
2023/08/09 07:09:05;;;;;;;3.67;1.20;;;19.20;99.90;;;;;;5133410;27;20213;-84
2023/08/09 07:11:36;;;;;;;2.60;1.20;;;19.10;99.90;;;;;;5132392;27;20189;-84
2023/08/09 07:14:08;;;;;;;1.65;1.00;;;19.00;99.90;;;;;;5135815;27;20565;-84
2023/08/09 07:16:39;;;;;;;2.58;1.10;;;18.90;99.90;;;;;;5154145;27;20651;-84
2023/08/09 07:19:10;;;;;;;3.70;1.20;;;18.90;99.90;;;;;;5139403;27;20763;-86
2023/08/09 07:21:41;;;;;;;1.88;1.30;;;18.80;99.90;;;;;;5143715;27;20537;-84
2023/08/09 07:24:12;;;;;;;3.88;1.38;;;18.70;99.90;;;;;;5136590;27;20243;-84
2023/08/09 07:26:42;;;;;;;3.90;1.30;;;18.60;99.90;;;;;;5136496;27;20193;-85
2023/08/09 07:29:15;;;;;;;3.83;1.40;;;18.60;99.90;;;;;;5153118;27;20217;-85
2023/08/09 07:31:46;;;;;;;2.85;1.48;;;18.50;99.90;;;;;;5141001;27;20272;-83
2023/08/09 07:34:17;;;;;;;5.15;1.50;;;18.50;99.90;;;;;;5132162;27;20194;-84
2023/08/09 07:36:48;;;;;;;6.28;1.50;;;18.40;99.90;;;;;;5132488;27;20190;-83
2023/08/09 07:39:18;;;;;;;3.88;1.35;;;18.40;99.90;;;;;;5133684;27;20675;-84
2023/08/09 07:41:50;;;;;;;4.38;1.23;;;18.30;99.90;;;;;;5132237;27;20185;-84
2023/08/09 07:44:22;;;;;;;2.67;1.30;;;18.30;99.90;;;;;;5149452;27;20276;-84
2023/08/09 07:46:53;;;;;;;3.20;1.48;;;18.20;99.90;;;;;;5153575;27;20193;-84
2023/08/09 07:49:24;;;;;;;2.53;1.70;;;18.20;99.90;;;;;;5152752;27;20572;-84
2023/08/09 07:51:55;;;;;;;3.42;1.63;;;18.20;99.90;;;;;;5149148;27;20220;-84
2023/08/09 07:54:26;;;;;;;3.25;1.60;;;18.10;99.90;;;;;;5133582;27;20605;-85
2023/08/09 07:56:58;;;;;;;2.75;1.35;;;18.10;99.90;;;;;;5134753;27;20236;-86
2023/08/09 07:59:31;;;;;;;3.63;1.45;;;17.90;99.90;;;;;;5135005;27;20247;-81
2023/08/09 08:02:01;;;;;;;3.38;1.70;;;17.90;99.90;;;;;;5132702;27;20186;-83
2023/08/09 08:04:32;;;;;;;2.22;1.30;;;17.90;99.90;;;;;;5133341;27;20190;-85
2023/08/09 08:07:09;;;;;;;2.17;1.42;;;17.90;99.90;;;;;;5133367;27;20202;-85
2023/08/09 08:09:49;;;;;;;2.65;1.40;;;17.90;99.90;;;;;;5156754;27;20212;-86
2023/08/09 08:12:21;;;;;;;2.25;1.35;;;17.90;99.90;;;;;;5140163;27;20201;-84
2023/08/09 08:14:54;;;;;;;3.35;1.33;;;17.80;99.90;;;;;;5136402;27;20205;-84
2023/08/09 08:17:25;;;;;;;3.20;1.27;;;17.80;99.90;;;;;;5136078;27;20240;-83
2023/08/09 08:19:56;;;;;;;3.85;1.20;;;17.80;99.90;;;;;;5156808;27;20201;-83
2023/08/09 08:22:28;;;;;;;4.78;1.50;;;17.70;99.90;;;;;;5157657;27;20193;-83
2023/08/09 08:24:59;;;;;;;3.33;1.30;;;17.70;99.90;;;;;;5142643;27;20192;-84
2023/08/09 08:27:30;;;;;;;4.93;1.40;;;17.70;99.90;;;;;;5157847;27;20235;-84
2023/08/09 08:30:04;;;;;;;2.00;1.30;;;17.70;99.90;;;;;;5159270;27;20193;-84
2023/08/09 08:32:35;;;;;;;1.77;1.20;;;17.60;99.90;;;;;;5169811;27;20213;-85
2023/08/09 08:35:13;;;;;;;4.20;1.70;;;17.70;99.90;;;;;;5171405;27;20193;-85
2023/08/09 08:37:44;;;;;;;3.45;1.63;;;17.60;99.90;;;;;;5158396;27;20205;-85
2023/08/09 08:40:17;;;;;;;2.90;1.38;;;17.60;99.90;;;;;;5156106;27;20195;-84
2023/08/09 08:42:55;;;;;;;1.65;1.30;;;17.50;99.90;;;;;;5155392;27;20197;-85
2023/08/09 08:45:28;;;;;;;3.00;1.77;;;17.60;99.90;;;;;;5157338;27;20201;-85
2023/08/09 08:47:59;;;;;;;3.30;1.33;;;17.60;99.90;;;;;;5140589;27;20186;-85
2023/08/09 08:50:34;;;;;;;3.75;1.85;;;17.50;99.90;;;;;;5136780;27;20209;-84
2023/08/09 08:53:06;;;;;;;3.40;1.75;;;17.50;99.90;;;;;;5146819;27;20205;-84
2023/08/09 08:55:37;;;;;;;2.40;1.40;;;17.50;99.90;;;;;;5135937;27;20194;-84
2023/08/09 08:58:08;;;;;;;3.70;1.75;;;17.50;99.90;;;;;;5146097;27;20200;-85
2023/08/09 09:00:41;;;;;;;3.28;1.45;;;17.40;99.90;;;;;;5156377;27;20205;-85
2023/08/09 09:03:12;;;;;;;2.45;1.40;;;17.40;99.90;;;;;;5156437;27;20194;-84
2023/08/09 09:05:43;;;;;;;3.00;1.50;;;17.40;99.90;;;;;;5137870;27;20201;-86
2023/08/09 09:08:14;;;;;;;3.33;1.50;;;17.40;99.90;;;;;;5136698;27;20214;-85
2023/08/09 09:10:50;;;;;;;4.15;1.60;;;17.40;99.90;;;;;;5141666;27;20194;-85
2023/08/09 09:13:28;;;;;;;3.65;1.65;;;17.30;99.90;;;;;;5141675;27;20189;-85
2023/08/09 09:16:02;;;;;;;3.35;1.73;;;17.30;99.90;;;;;;5153953;27;20209;-83
2023/08/09 09:18:32;;;;;;;2.85;1.50;;;17.30;99.90;;;;;;5135169;27;20221;-85
2023/08/09 09:21:09;;;;;;;3.13;1.50;;;17.30;99.90;;;;;;5136383;27;20190;-85
2023/08/09 09:23:40;;;;;;;2.22;1.50;;;17.20;99.90;;;;;;5143925;27;20235;-84
2023/08/09 09:26:12;;;;;;;2.10;1.90;;;17.20;99.90;;;;;;5144651;27;20201;-84
2023/08/09 09:28:44;;;;;;;4.45;2.00;;;17.20;99.90;;;;;;5134425;27;20253;-84
2023/08/09 09:31:19;;;;;;;2.88;1.92;;;17.20;99.90;;;;;;5154353;27;20185;-84
2023/08/09 09:33:51;;;;;;;2.78;1.90;;;17.20;99.90;;;;;;5138730;27;20216;-85
2023/08/09 09:36:22;;;;;;;3.17;1.70;;;17.20;99.90;;;;;;5135350;27;20676;-85
2023/08/09 09:38:56;;;;;;;3.72;1.60;;;17.10;99.90;;;;;;5135455;27;20202;-85
2023/08/09 09:41:27;;;;;;;2.55;1.88;;;17.20;99.90;;;;;;5136204;27;20194;-85
2023/08/09 09:44:12;;;;;;;2.83;2.10;;;17.10;99.90;;;;;;5143655;27;20194;-85
2023/08/09 09:46:46;;;;;;;3.55;1.48;;;17.10;99.90;;;;;;5137614;27;20198;-85
2023/08/09 09:49:24;;;;;;;4.10;2.80;;;17.10;99.90;;;;;;5135947;27;20270;-84
2023/08/09 09:51:56;;;;;;;3.30;2.05;;;17.10;99.90;;;;;;5134571;27;20250;-84
2023/08/09 09:54:34;;;;;;;2.25;1.80;;;17.10;99.90;;;;;;5152945;27;20197;-85
2023/08/09 09:57:10;;;;;;;3.97;2.00;;;17.10;99.90;;;;;;5133557;27;20246;-83
2023/08/09 09:59:41;;;;;;;2.95;1.75;;;17.10;99.90;;;;;;5135508;27;20205;-84
2023/08/09 10:02:22;;;;;;;4.65;1.90;;;17.10;99.90;;;;;;5137774;27;20198;-85
2023/08/09 10:05:18;;;;;;;3.53;1.63;;;17.10;99.90;;;;;;5149692;27;20569;-84
2023/08/09 10:08:20;;;;;;;4.93;1.65;;;17.00;99.90;;;;;;5148775;27;20182;-86
2023/08/09 10:11:16;;;;;;;4.10;2.10;;;17.00;99.90;;;;;;5146187;27;20193;-86
2023/08/09 10:16:44;;;;;;;10.48;2.22;;;16.90;99.90;;;;;;5166028;27;20185;-84
2023/08/09 10:19:24;;;;;;;3.42;1.98;;;16.90;99.90;;;;;;5132207;27;20226;-84
2023/08/09 10:21:58;;;;;;;2.83;1.58;;;16.90;99.90;;;;;;5141040;27;20189;-83
2023/08/09 10:24:35;;;;;;;3.22;1.80;;;16.90;99.90;;;;;;5137013;27;20217;-86
2023/08/09 10:27:12;;;;;;;2.95;1.70;;;16.90;99.90;;;;;;5135175;27;20229;-83
2023/08/09 10:29:48;;;;;;;3.30;2.30;;;16.90;99.90;;;;;;5140848;27;20240;-84
2023/08/09 10:32:19;;;;;;;4.18;1.80;;;16.80;99.90;;;;;;5135092;27;20208;-84
2023/08/09 10:34:54;;;;;;;3.60;2.00;;;16.90;99.90;;;;;;5133575;27;20198;-83
2023/08/09 10:37:29;;;;;;;2.97;2.05;;;16.80;99.90;;;;;;5133138;27;20257;-84
2023/08/09 10:40:15;;;;;;;4.28;1.75;;;16.80;99.90;;;;;;5134339;27;20205;-85
2023/08/09 10:42:52;;;;;;;4.00;1.70;;;16.80;99.90;;;;;;5136795;27;20336;-85
2023/08/09 10:54:46;;;;;;;3.03;1.90;;;16.80;99.90;;;;;;5078951;27;20201;-84
2023/08/09 10:57:17;;;;;;;4.65;1.58;;;16.80;99.90;;;;;;5145646;27;20217;-84
2023/08/09 11:00:00;;;;;;;3.85;1.67;;;16.70;99.90;;;;;;5143146;27;20194;-85
2023/08/09 11:02:31;;;;;;;3.25;1.42;;;16.70;99.90;;;;;;5134620;27;20189;-85
2023/08/09 11:05:03;;;;;;;3.13;1.60;;;16.70;99.90;;;;;;5134273;27;20186;-86
2023/08/09 11:07:36;;;;;;;2.50;1.55;;;16.70;99.90;;;;;;5133486;27;20198;-85
2023/08/09 11:10:08;;;;;;;2.75;1.70;;;16.70;99.90;;;;;;5146597;27;20590;-83
2023/08/09 11:12:46;;;;;;;2.15;1.30;;;16.70;99.90;;;;;;5152526;27;20205;-85
2023/08/09 11:15:17;;;;;;;3.50;1.48;;;16.70;99.90;;;;;;5134759;27;20715;-83
2023/08/09 11:17:53;;;;;;;3.47;1.80;;;16.70;99.90;;;;;;5133474;27;20236;-83
2023/08/09 11:20:25;;;;;;;2.35;1.50;;;16.70;99.90;;;;;;5134557;27;20220;-85
2023/08/09 11:23:03;;;;;;;3.60;1.40;;;16.70;99.90;;;;;;5134967;27;20197;-84
2023/08/09 11:25:35;;;;;;;1.52;1.27;;;16.70;99.90;;;;;;5132926;27;20238;-84
2023/08/09 11:28:07;;;;;;;3.17;1.13;;;16.70;99.90;;;;;;5134100;27;20189;-85
2023/08/09 11:30:38;;;;;;;2.08;1.20;;;16.70;99.90;;;;;;5133249;27;20563;-84
2023/08/09 11:33:11;;;;;;;4.28;1.35;;;16.70;99.90;;;;;;5150048;27;20197;-85
2023/08/09 11:35:45;;;;;;;2.10;1.48;;;16.60;99.90;;;;;;5154612;27;20217;-84
2023/08/09 11:38:19;;;;;;;2.75;1.30;;;16.70;99.90;;;;;;5139575;27;20197;-83
2023/08/09 11:40:52;;;;;;;3.97;1.40;;;16.60;99.90;;;;;;5135134;27;20210;-84
2023/08/09 11:43:23;;;;;;;2.90;1.25;;;16.60;99.90;;;;;;5158093;27;20205;-84
2023/08/09 11:45:59;;;;;;;3.20;1.30;;;16.60;99.90;;;;;;5150209;27;20193;-85
2023/08/09 11:48:34;;;;;;;1.73;1.40;;;16.60;99.90;;;;;;5138226;27;20232;-84
2023/08/09 11:51:10;;;;;;;3.22;1.60;;;16.60;99.90;;;;;;5143866;27;20242;-85
2023/08/09 11:53:44;;;;;;;1.80;1.20;;;16.50;99.90;;;;;;5137886;27;20190;-84
2023/08/09 11:56:21;;;;;;;4.60;1.52;;;16.50;99.90;;;;;;5140699;27;20200;-83
2023/08/09 11:58:53;;;;;;;3.45;1.40;;;16.50;99.90;;;;;;5149957;27;20639;-85
2023/08/09 12:01:25;;;;;;;2.70;1.20;;;16.60;99.90;;;;;;5137438;27;20193;-84
2023/08/09 12:03:57;;;;;;;4.40;1.40;;;16.60;99.90;;;;;;5145974;27;20189;-83
2023/08/09 12:06:41;;;;;;;1.75;1.20;;;16.60;99.90;;;;;;5148521;27;20624;-84
2023/08/09 12:09:41;;;;;;;3.50;1.48;;;16.60;99.90;;;;;;5150051;27;20702;-83
2023/08/09 12:12:13;;;;;;;2.10;1.33;;;16.50;99.90;;;;;;5157811;27;20246;-85
2023/08/09 12:14:44;;;;;;;2.97;1.25;;;16.60;99.90;;;;;;5155805;27;20211;-84
2023/08/09 12:17:23;;;;;;;1.45;1.08;;;16.50;99.90;;;;;;5160960;27;20200;-83
2023/08/09 12:20:00;;;;;;;2.55;1.20;;;16.50;99.90;;;;;;5147710;27;20189;-83
2023/08/09 12:22:31;;;;;;;4.70;1.33;;;16.50;99.90;;;;;;5153147;27;20193;-85
2023/08/09 12:25:04;;;;;;;2.45;1.40;;;16.50;99.90;;;;;;5137390;27;20668;-84
2023/08/09 12:27:35;;;;;;;1.77;1.20;;;16.50;99.90;;;;;;5135968;27;20207;-84
2023/08/09 12:30:10;;;;;;;2.20;1.20;;;16.50;99.90;;;;;;5136540;27;20214;-84
2023/08/09 12:32:41;;;;;;;5.20;1.75;;;16.50;99.90;;;;;;5136242;27;20197;-82
2023/08/09 12:35:12;;;;;;;2.88;1.23;;;16.50;99.90;;;;;;5136768;27;20190;-84
2023/08/09 12:37:45;;;;;;;2.42;1.20;;;16.50;99.90;;;;;;5135939;27;20235;-83
2023/08/09 12:40:18;;;;;;;2.45;1.17;;;16.50;99.90;;;;;;5136045;27;20204;-84
2023/08/09 12:42:51;;;;;;;3.20;1.20;;;16.40;99.90;;;;;;5135512;27;20276;-85
2023/08/09 12:45:21;;;;;;;2.10;1.20;;;16.40;99.90;;;;;;5135409;27;20204;-82
2023/08/09 12:47:52;;;;;;;2.50;1.30;;;16.50;99.90;;;;;;5135019;27;20572;-84
2023/08/09 12:50:24;;;;;;;1.80;1.10;;;16.40;99.90;;;;;;5134615;27;20224;-84
2023/08/09 12:52:54;;;;;;;2.30;1.35;;;16.40;99.90;;;;;;5133473;27;20242;-84
2023/08/09 12:55:27;;;;;;;1.75;1.20;;;16.40;99.90;;;;;;5134705;27;20190;-84
2023/08/09 12:57:58;;;;;;;2.80;1.40;;;16.40;99.90;;;;;;5135239;27;20194;-83
2023/08/09 13:00:31;;;;;;;3.65;1.45;;;16.40;99.90;;;;;;5135698;27;20194;-85
2023/08/09 13:03:02;;;;;;;2.72;1.30;;;16.40;99.90;;;;;;5139355;27;20571;-84
2023/08/09 13:05:33;;;;;;;2.55;1.50;;;16.40;99.90;;;;;;5155294;27;20233;-84
2023/08/09 13:08:04;;;;;;;1.70;1.30;;;16.40;99.90;;;;;;5154185;27;20197;-85
2023/08/09 13:10:37;;;;;;;1.40;1.13;;;16.40;99.90;;;;;;5135072;27;20217;-83
2023/08/09 13:13:08;;;;;;;2.45;1.35;;;16.40;99.90;;;;;;5134574;27;20196;-85
2023/08/09 13:15:38;;;;;;;2.00;1.50;;;16.40;99.90;;;;;;5135045;27;20247;-85
2023/08/09 13:18:09;;;;;;;1.17;1.08;;;16.30;99.90;;;;;;5136222;27;20381;-84
2023/08/09 13:20:40;;;;;;;2.13;1.20;;;16.30;99.90;;;;;;5153227;27;20205;-84
2023/08/09 13:23:11;;;;;;;1.65;1.17;;;16.30;99.90;;;;;;5139863;27;20210;-84
2023/08/09 13:25:44;;;;;;;2.22;1.50;;;16.30;99.90;;;;;;5134269;27;20194;-83
2023/08/09 13:28:14;;;;;;;3.72;1.40;;;16.30;99.90;;;;;;5146756;27;20656;-86